createdAt,value
2018-07-20T00:02:12.992Z,20.70
2018-07-20T00:04:41.447Z,20.67
2018-07-20T00:07:09.804Z,20.65
2018-07-20T00:09:38.258Z,20.66
2018-07-20T00:12:06.785Z,20.61
2018-07-20T00:14:35.208Z,20.51
2018-07-20T00:17:03.677Z,20.40
2018-07-20T00:19:32.060Z,20.26
2018-07-20T00:22:00.485Z,20.23
2018-07-20T00:24:28.899Z,20.21
2018-07-20T00:26:57.352Z,20.15
2018-07-20T00:29:25.782Z,20.00
2018-07-20T00:31:54.164Z,19.94
2018-07-20T00:34:22.598Z,19.86
2018-07-20T00:36:51.012Z,19.72
2018-07-20T00:39:19.424Z,19.58
2018-07-20T00:41:47.840Z,19.40
2018-07-20T00:44:16.230Z,19.35
2018-07-20T00:46:44.705Z,19.27
2018-07-20T00:49:13.091Z,19.22
2018-07-20T00:51:41.484Z,19.19
2018-07-20T00:54:09.870Z,19.12
2018-07-20T00:56:38.327Z,19.18
2018-07-20T00:59:06.723Z,19.24
2018-07-20T01:01:35.195Z,19.19
2018-07-20T01:04:03.680Z,19.05
2018-07-20T01:06:32.180Z,18.94
2018-07-20T01:09:00.643Z,18.65
2018-07-20T01:11:29.121Z,18.65
2018-07-20T01:13:57.608Z,18.73
2018-07-20T01:16:25.987Z,18.81
2018-07-20T01:18:54.356Z,18.72
2018-07-20T01:21:22.741Z,18.72
2018-07-20T01:23:51.167Z,18.65
2018-07-20T01:26:19.577Z,18.69
2018-07-20T01:28:47.969Z,18.32
2018-07-20T01:31:16.386Z,18.32
2018-07-20T01:33:44.747Z,18.34
2018-07-20T01:36:13.152Z,18.22
2018-07-20T01:38:41.535Z,18.24
2018-07-20T01:41:09.925Z,18.22
2018-07-20T01:43:38.367Z,18.22
2018-07-20T01:46:06.796Z,18.23
2018-07-20T01:48:35.173Z,18.27
2018-07-20T01:51:03.625Z,18.24
2018-07-20T01:53:32.065Z,18.22
2018-07-20T01:56:00.539Z,18.15
2018-07-20T01:58:28.981Z,18.15
2018-07-20T02:00:57.367Z,18.05
2018-07-20T02:03:25.848Z,18.11
2018-07-20T02:05:54.300Z,18.08
2018-07-20T02:08:22.676Z,18.05
2018-07-20T02:10:56.684Z,17.85
2018-07-20T02:13:25.144Z,17.98
2018-07-20T02:15:53.504Z,17.94
2018-07-20T02:18:22.249Z,17.94
2018-07-20T02:20:50.629Z,17.89
2018-07-20T02:23:19.156Z,17.84
2018-07-20T02:25:47.565Z,17.84
2018-07-20T02:28:15.987Z,17.83
2018-07-20T02:30:44.745Z,17.83
2018-07-20T02:33:13.111Z,17.80
2018-07-20T02:35:41.543Z,17.80
2018-07-20T02:38:09.941Z,17.77
2018-07-20T02:40:38.343Z,17.77
2018-07-20T02:43:06.774Z,17.77
2018-07-20T02:45:35.290Z,17.59
2018-07-20T02:48:03.747Z,17.53
2018-07-20T02:50:32.753Z,17.44
2018-07-20T02:53:01.197Z,17.46
2018-07-20T02:55:29.584Z,17.50
2018-07-20T02:57:58.903Z,17.48
2018-07-20T03:00:27.324Z,17.36
2018-07-20T03:02:55.743Z,17.31
2018-07-20T03:05:24.115Z,17.28
2018-07-20T03:07:52.524Z,17.32
2018-07-20T03:10:20.884Z,17.28
2018-07-20T03:12:49.362Z,17.31
2018-07-20T03:15:17.861Z,17.30
2018-07-20T03:17:46.240Z,17.23
2018-07-20T03:20:14.648Z,17.16
2018-07-20T03:22:43.040Z,17.02
2018-07-20T03:25:11.441Z,16.98
2018-07-20T03:27:39.835Z,16.98
2018-07-20T03:30:08.294Z,16.95
2018-07-20T03:32:36.732Z,16.93
2018-07-20T03:35:05.341Z,17.01
2018-07-20T03:37:33.741Z,17.10
2018-07-20T03:40:02.250Z,17.12
2018-07-20T03:42:31.188Z,17.10
2018-07-20T03:44:59.633Z,17.09
2018-07-20T03:47:28.044Z,17.03
2018-07-20T03:49:56.506Z,17.03
2018-07-20T03:52:24.914Z,17.04
2018-07-20T03:54:53.665Z,17.07
2018-07-20T03:57:22.037Z,17.05
2018-07-20T03:59:50.384Z,17.03
2018-07-20T04:02:18.807Z,16.87
2018-07-20T04:04:47.253Z,16.79
2018-07-20T04:07:15.688Z,16.72
2018-07-20T04:09:44.134Z,16.72
2018-07-20T04:12:12.568Z,16.75
2018-07-20T04:14:40.979Z,16.74
2018-07-20T04:17:09.456Z,16.80
2018-07-20T04:19:38.027Z,16.81
2018-07-20T04:22:06.502Z,16.74
2018-07-20T04:24:34.942Z,16.85
2018-07-20T04:27:03.343Z,16.89
2018-07-20T04:29:31.752Z,16.94
2018-07-20T04:32:00.200Z,16.85
2018-07-20T04:34:28.648Z,16.92
2018-07-20T04:36:57.017Z,16.89
2018-07-20T04:39:25.425Z,17.03
2018-07-20T04:41:53.829Z,17.13
2018-07-20T04:44:22.317Z,17.14
2018-07-20T04:46:50.742Z,17.13
2018-07-20T04:49:19.165Z,17.10
2018-07-20T04:51:47.632Z,16.93
2018-07-20T04:54:16.060Z,16.88
2018-07-20T04:56:44.532Z,16.90
2018-07-20T04:59:12.934Z,16.94
2018-07-20T05:01:41.300Z,16.95
2018-07-20T05:04:09.787Z,16.92
2018-07-20T05:06:38.204Z,16.92
2018-07-20T05:09:09.121Z,16.95
2018-07-20T05:11:38.017Z,16.84
2018-07-20T05:14:06.469Z,16.96
2018-07-20T05:16:34.905Z,17.00
2018-07-20T05:19:03.291Z,17.03
2018-07-20T05:21:31.690Z,16.99
2018-07-20T05:24:00.079Z,17.03
2018-07-20T05:26:28.497Z,17.05
2018-07-20T05:28:56.956Z,17.04
2018-07-20T05:31:25.417Z,17.11
2018-07-20T05:33:53.871Z,17.17
2018-07-20T05:36:22.316Z,17.23
2018-07-20T05:38:50.753Z,17.30
2018-07-20T05:41:19.175Z,17.37
2018-07-20T05:43:47.570Z,17.45
2018-07-20T05:46:16.049Z,17.50
2018-07-20T05:48:44.455Z,17.56
2018-07-20T05:51:13.033Z,17.64
2018-07-20T05:53:41.480Z,17.71
2018-07-20T05:56:09.962Z,17.76
2018-07-20T05:58:38.411Z,17.85
2018-07-20T06:01:06.933Z,17.92
2018-07-20T06:03:35.364Z,17.98
2018-07-20T06:06:03.812Z,18.03
2018-07-20T06:08:32.200Z,18.12
2018-07-20T06:11:00.625Z,18.16
2018-07-20T06:13:29.061Z,18.22
2018-07-20T06:15:57.525Z,18.28
2018-07-20T06:18:26.020Z,18.32
2018-07-20T06:20:54.457Z,18.04
2018-07-20T06:23:22.873Z,18.41
2018-07-20T06:25:51.289Z,18.47
2018-07-20T06:28:19.716Z,18.51
2018-07-20T06:30:48.120Z,18.57
2018-07-20T06:33:16.576Z,18.61
2018-07-20T06:35:44.955Z,18.63
2018-07-20T06:38:13.418Z,18.69
2018-07-20T06:40:41.829Z,18.76
2018-07-20T06:43:10.201Z,18.80
2018-07-20T06:45:38.676Z,18.84
2018-07-20T06:48:07.554Z,18.86
2018-07-20T06:50:36.023Z,18.88
2018-07-20T06:53:04.741Z,18.90
2018-07-20T06:55:33.151Z,18.91
2018-07-20T06:58:01.585Z,18.92
2018-07-20T07:00:30.168Z,18.95
2018-07-20T07:02:58.604Z,18.98
2018-07-20T07:05:27.116Z,19.02
2018-07-20T07:07:55.535Z,19.08
2018-07-20T07:10:24.226Z,19.12
2018-07-20T07:12:52.812Z,19.17
2018-07-20T07:15:21.230Z,19.23
2018-07-20T07:17:49.642Z,19.27
2018-07-20T07:20:18.052Z,19.30
2018-07-20T07:22:46.442Z,19.33
2018-07-20T07:25:14.897Z,19.34
2018-07-20T07:27:43.905Z,19.39
2018-07-20T07:30:12.506Z,19.44
2018-07-20T07:32:40.965Z,19.48
2018-07-20T07:35:09.421Z,19.48
2018-07-20T07:37:37.840Z,19.50
2018-07-20T07:40:06.406Z,19.51
2018-07-20T07:42:34.818Z,19.56
2018-07-20T07:45:03.605Z,19.60
2018-07-20T07:47:32.016Z,19.69
2018-07-20T07:50:00.473Z,19.73
2018-07-20T07:52:28.883Z,19.77
2018-07-20T07:54:57.471Z,19.79
2018-07-20T07:57:25.809Z,19.86
2018-07-20T07:59:54.200Z,19.93
2018-07-20T08:02:22.704Z,19.95
2018-07-20T08:04:51.110Z,19.98
2018-07-20T08:07:19.685Z,19.97
2018-07-20T08:09:48.080Z,19.97
2018-07-20T08:12:16.523Z,19.96
2018-07-20T08:14:45.329Z,19.98
2018-07-20T08:17:13.874Z,20.09
2018-07-20T08:19:43.191Z,20.10
2018-07-20T08:22:11.712Z,20.14
2018-07-20T08:24:40.142Z,20.15
2018-07-20T08:27:08.549Z,20.17
2018-07-20T08:29:37.026Z,20.30
2018-07-20T08:32:05.587Z,20.39
2018-07-20T08:34:34.061Z,20.43
2018-07-20T08:37:02.493Z,20.43
2018-07-20T08:39:30.897Z,20.44
2018-07-20T08:41:59.345Z,20.45
2018-07-20T08:44:27.733Z,20.50
2018-07-20T08:46:56.147Z,20.68
2018-07-20T08:49:24.560Z,20.78
2018-07-20T08:51:53.102Z,20.84
2018-07-20T08:54:21.483Z,20.82
2018-07-20T08:56:49.925Z,20.96
2018-07-20T08:59:18.336Z,21.05
2018-07-20T09:01:46.768Z,20.98
2018-07-20T09:04:15.751Z,20.90
2018-07-20T09:06:44.153Z,20.89
2018-07-20T09:09:12.576Z,20.91
2018-07-20T09:11:41.025Z,20.93
2018-07-20T09:14:09.422Z,20.92
2018-07-20T09:16:38.181Z,20.96
2018-07-20T09:19:06.624Z,21.02
2018-07-20T09:21:35.064Z,21.02
2018-07-20T09:24:03.592Z,21.04
2018-07-20T09:26:32.022Z,21.15
2018-07-20T09:29:00.408Z,21.14
2018-07-20T09:31:28.805Z,21.20
2018-07-20T09:33:57.243Z,21.22
2018-07-20T09:36:25.633Z,21.35
2018-07-20T09:38:54.049Z,21.62
2018-07-20T09:41:22.512Z,21.62
2018-07-20T09:43:50.969Z,21.61
2018-07-20T09:46:19.823Z,21.62
2018-07-20T09:48:48.272Z,21.67
2018-07-20T09:51:16.693Z,21.70
2018-07-20T09:53:45.122Z,21.75
2018-07-20T09:56:13.859Z,21.75
2018-07-20T09:58:42.292Z,21.76
2018-07-20T10:01:10.692Z,21.77
2018-07-20T10:03:39.182Z,21.99
2018-07-20T10:06:07.609Z,22.14
2018-07-20T10:08:36.077Z,22.18
2018-07-20T10:11:04.576Z,22.16
2018-07-20T10:13:32.960Z,22.30
2018-07-20T10:16:01.358Z,22.71
2018-07-20T10:18:29.828Z,22.94
2018-07-20T10:20:58.324Z,23.00
2018-07-20T10:23:26.744Z,22.92
2018-07-20T10:25:55.161Z,22.86
2018-07-20T10:28:23.635Z,22.83
2018-07-20T10:30:52.093Z,22.83
2018-07-20T10:33:20.547Z,22.85
2018-07-20T10:35:48.955Z,22.97
2018-07-20T10:38:17.537Z,22.97
2018-07-20T10:40:46.540Z,22.86
2018-07-20T10:43:14.998Z,23.00
2018-07-20T10:45:43.412Z,23.14
2018-07-20T10:48:11.783Z,23.24
2018-07-20T10:50:40.222Z,23.22
2018-07-20T10:53:08.668Z,23.15
2018-07-20T10:55:37.076Z,23.16
2018-07-20T10:58:05.645Z,23.57
2018-07-20T11:00:34.069Z,23.86
2018-07-20T11:03:02.469Z,23.75
2018-07-20T11:05:30.965Z,23.60
2018-07-20T11:07:59.458Z,23.44
2018-07-20T11:10:27.894Z,23.33
2018-07-20T11:12:57.721Z,23.47
2018-07-20T11:15:26.160Z,23.53
2018-07-20T11:17:54.702Z,23.63
2018-07-20T11:20:23.157Z,23.88
2018-07-20T11:22:51.637Z,23.87
2018-07-20T11:25:20.103Z,23.89
2018-07-20T11:27:48.821Z,23.92
2018-07-20T11:30:17.424Z,23.96
2018-07-20T11:32:46.168Z,23.94
2018-07-20T11:35:14.669Z,23.96
2018-07-20T11:37:43.092Z,24.13
2018-07-20T11:40:11.513Z,24.08
2018-07-20T11:42:39.955Z,24.17
2018-07-20T11:45:08.437Z,24.30
2018-07-20T11:47:36.845Z,24.17
2018-07-20T11:50:05.731Z,24.14
2018-07-20T11:52:34.222Z,24.23
2018-07-20T11:55:02.699Z,24.43
2018-07-20T11:57:31.133Z,24.41
2018-07-20T11:59:59.624Z,24.35
2018-07-20T12:02:28.052Z,24.55
2018-07-20T12:04:56.526Z,24.70
2018-07-20T12:07:26.628Z,24.79
2018-07-20T12:09:55.048Z,24.91
2018-07-20T12:12:24.001Z,25.10
2018-07-20T12:14:53.103Z,25.36
2018-07-20T12:17:21.499Z,25.57
2018-07-20T12:19:49.925Z,25.63
2018-07-20T12:22:18.404Z,25.75
2018-07-20T12:24:49.979Z,25.97
2018-07-20T12:27:18.472Z,26.22
2018-07-20T12:29:46.890Z,26.48
2018-07-20T12:32:15.456Z,26.76
2018-07-20T12:34:43.949Z,26.88
2018-07-20T12:37:12.388Z,26.88
2018-07-20T12:39:40.800Z,26.83
2018-07-20T12:42:09.691Z,27.02
2018-07-20T12:44:38.135Z,27.07
2018-07-20T12:47:06.581Z,27.40
2018-07-20T12:49:35.808Z,27.41
2018-07-20T12:52:04.354Z,26.97
2018-07-20T12:54:32.817Z,26.64
2018-07-20T12:57:01.209Z,26.76
2018-07-20T12:59:29.672Z,27.10
2018-07-20T13:01:58.262Z,27.24
2018-07-20T13:04:26.738Z,27.66
2018-07-20T13:06:55.312Z,27.80
2018-07-20T13:09:23.834Z,27.80
2018-07-20T13:11:52.359Z,27.78
2018-07-20T13:14:21.538Z,28.08
2018-07-20T13:16:50.030Z,28.33
2018-07-20T13:19:18.464Z,28.56
2018-07-20T13:21:46.958Z,28.80
2018-07-20T13:24:16.340Z,28.71
2018-07-20T13:26:44.876Z,28.75
2018-07-20T13:29:13.301Z,28.85
2018-07-20T13:31:41.765Z,29.09
2018-07-20T13:34:10.783Z,29.34
2018-07-20T13:36:39.774Z,29.36
2018-07-20T13:39:11.268Z,29.31
2018-07-20T13:41:41.897Z,29.07
2018-07-20T13:44:10.375Z,28.96
2018-07-20T13:46:38.814Z,28.70
2018-07-20T13:49:07.216Z,28.74
2018-07-20T13:51:35.688Z,28.91
2018-07-20T13:54:04.203Z,28.64
2018-07-20T13:56:32.722Z,28.54
2018-07-20T13:59:01.190Z,28.58
2018-07-20T14:01:29.624Z,28.77
2018-07-20T14:03:58.080Z,29.09
2018-07-20T14:06:26.501Z,29.17
2018-07-20T14:08:54.895Z,29.01
2018-07-20T14:11:23.415Z,28.93
2018-07-20T14:13:52.085Z,28.96
2018-07-20T14:16:20.545Z,28.73
2018-07-20T14:18:48.974Z,28.67
2018-07-20T14:21:17.613Z,28.78
2018-07-20T14:23:46.099Z,28.95
2018-07-20T14:26:14.489Z,29.02
2018-07-20T14:28:42.932Z,28.64
2018-07-20T14:31:11.412Z,28.57
2018-07-20T14:33:39.847Z,28.24
2018-07-20T14:36:08.253Z,28.16
2018-07-20T14:38:36.661Z,28.24
2018-07-20T14:41:05.160Z,28.04
2018-07-20T14:43:33.576Z,28.10
2018-07-20T14:46:02.003Z,28.22
2018-07-20T14:48:30.454Z,28.36
2018-07-20T14:50:59.856Z,28.50
2018-07-20T14:53:28.308Z,28.42
2018-07-20T14:55:57.088Z,28.45
2018-07-20T14:58:25.540Z,28.57
2018-07-20T15:00:53.940Z,28.63
2018-07-20T15:03:22.385Z,28.63
2018-07-20T15:05:50.869Z,28.66
2018-07-20T15:08:19.283Z,28.79
2018-07-20T15:10:47.750Z,28.93
2018-07-20T15:13:16.273Z,28.78
2018-07-20T15:15:44.695Z,28.66
2018-07-20T15:18:13.162Z,28.68
2018-07-20T15:20:41.596Z,28.75
2018-07-20T15:23:10.012Z,28.74
2018-07-20T15:25:39.996Z,28.74
2018-07-20T15:28:08.430Z,28.71
2018-07-20T15:30:36.980Z,28.68
2018-07-20T15:33:05.404Z,28.41
2018-07-20T15:35:33.876Z,28.27
2018-07-20T15:38:02.407Z,28.34
2018-07-20T15:40:30.952Z,28.49
2018-07-20T15:42:59.448Z,28.54
2018-07-20T15:45:28.070Z,28.70
2018-07-20T15:47:56.552Z,28.60
2018-07-20T15:50:25.272Z,28.66
2018-07-20T15:55:22.207Z,28.81
2018-07-20T15:57:50.668Z,28.78
2018-07-20T16:00:19.106Z,28.83
2018-07-20T16:02:47.520Z,28.87
2018-07-20T16:05:15.949Z,28.85
2018-07-20T16:07:44.481Z,28.58
2018-07-20T16:10:12.905Z,28.40
2018-07-20T16:12:41.359Z,28.37
2018-07-20T16:15:09.762Z,28.43
2018-07-20T16:17:38.207Z,28.31
2018-07-20T16:20:06.754Z,28.22
2018-07-20T16:22:35.228Z,28.04
2018-07-20T16:25:03.729Z,27.96
2018-07-20T16:27:32.180Z,27.90
2018-07-20T16:30:00.677Z,27.93
2018-07-20T16:32:29.206Z,27.85
2018-07-20T16:34:57.731Z,27.80
2018-07-20T16:37:26.736Z,27.75
2018-07-20T16:39:55.204Z,27.67
2018-07-20T16:42:23.693Z,27.58
2018-07-20T16:44:52.157Z,27.53
2018-07-20T16:47:20.700Z,27.47
2018-07-20T16:49:49.273Z,27.48
2018-07-20T16:52:17.816Z,27.53
2018-07-20T16:54:46.194Z,27.51
2018-07-20T16:57:14.675Z,27.52
2018-07-20T16:59:43.083Z,27.61
2018-07-20T17:02:11.520Z,27.84
2018-07-20T17:04:39.907Z,27.87
2018-07-20T17:07:08.377Z,27.81
2018-07-20T17:09:36.752Z,27.80
2018-07-20T17:12:05.188Z,27.77
2018-07-20T17:14:33.681Z,27.63
2018-07-20T17:17:02.100Z,27.49
2018-07-20T17:19:30.521Z,27.38
2018-07-20T17:22:00.020Z,27.25
2018-07-20T17:24:28.471Z,27.17
2018-07-20T17:26:56.917Z,27.09
2018-07-20T17:29:25.458Z,27.02
2018-07-20T17:31:53.921Z,26.90
2018-07-20T17:34:22.307Z,26.84
2018-07-20T17:36:50.852Z,26.80
2018-07-20T17:39:19.280Z,26.81
2018-07-20T17:41:47.963Z,26.79
2018-07-20T17:44:16.448Z,26.82
2018-07-20T17:46:44.878Z,26.83
2018-07-20T17:49:13.332Z,26.80
2018-07-20T17:51:41.753Z,26.75
2018-07-20T17:54:10.145Z,26.67
2018-07-20T17:56:38.584Z,26.60
2018-07-20T17:59:07.041Z,26.52
2018-07-20T18:01:35.893Z,26.34
2018-07-20T18:04:04.534Z,26.39
2018-07-20T18:06:33.072Z,26.36
2018-07-20T18:09:01.859Z,26.29
2018-07-20T18:11:30.253Z,26.20
2018-07-20T18:13:58.695Z,26.13
2018-07-20T18:16:27.100Z,26.10
2018-07-20T18:18:55.603Z,26.05
2018-07-20T18:21:24.775Z,25.99
2018-07-20T18:23:53.271Z,25.95
2018-07-20T18:26:22.303Z,25.92
2018-07-20T18:28:50.811Z,25.89
2018-07-20T18:31:19.308Z,25.85
2018-07-20T18:33:47.923Z,25.82
2018-07-20T18:36:16.232Z,25.79
2018-07-20T18:38:44.660Z,25.70
2018-07-20T18:41:14.122Z,25.62
2018-07-20T18:43:42.561Z,25.57
2018-07-20T18:46:11.524Z,25.57
2018-07-20T18:48:40.125Z,25.55
2018-07-20T18:51:08.884Z,25.47
2018-07-20T18:53:37.372Z,25.42
2018-07-20T18:56:05.988Z,25.41
2018-07-20T18:58:34.395Z,25.35
2018-07-20T19:01:03.014Z,25.29
2018-07-20T19:03:31.570Z,25.23
2018-07-20T19:05:59.996Z,25.17
2018-07-20T19:08:29.481Z,25.13
2018-07-20T19:10:57.884Z,25.08
2018-07-20T19:13:26.569Z,25.01
2018-07-20T19:15:55.086Z,24.96
2018-07-20T19:18:23.539Z,24.93
2018-07-20T19:20:51.955Z,24.90
2018-07-20T19:23:20.367Z,24.87
2018-07-20T19:25:48.813Z,24.82
2018-07-20T19:28:17.228Z,24.77
2018-07-20T19:30:45.692Z,24.74
2018-07-20T19:33:14.151Z,24.73
2018-07-20T19:35:43.358Z,24.73
2018-07-20T19:38:11.769Z,24.73
2018-07-20T19:40:40.746Z,24.72
2018-07-20T19:43:09.196Z,24.67
2018-07-20T19:45:37.660Z,24.57
2018-07-20T19:48:06.902Z,24.56
2018-07-20T19:50:35.318Z,24.54
2018-07-20T19:53:03.835Z,24.46
2018-07-20T19:55:32.276Z,24.38
2018-07-20T19:58:00.710Z,24.31
2018-07-20T20:00:29.180Z,24.27
2018-07-20T20:02:57.556Z,24.22
2018-07-20T20:05:26.101Z,24.25
2018-07-20T20:07:54.597Z,24.30
2018-07-20T20:10:22.997Z,24.30
2018-07-20T20:12:51.475Z,24.26
2018-07-20T20:15:20.070Z,24.24
2018-07-20T20:17:48.980Z,24.21
2018-07-20T20:20:17.428Z,24.13
2018-07-20T20:22:46.800Z,24.06
2018-07-20T20:25:15.232Z,23.99
2018-07-20T20:27:43.766Z,23.95
2018-07-20T20:30:12.731Z,23.95
2018-07-20T20:32:41.184Z,23.93
2018-07-20T20:35:09.622Z,23.93
2018-07-20T20:37:38.102Z,23.87
2018-07-20T20:40:07.645Z,23.75
2018-07-20T20:42:36.107Z,23.64
2018-07-20T20:45:05.172Z,23.64
2018-07-20T20:47:33.589Z,23.65
2018-07-20T20:50:02.053Z,23.69
2018-07-20T20:52:30.595Z,23.70
2018-07-20T20:54:59.072Z,23.56
2018-07-20T20:57:27.491Z,23.62
2018-07-20T20:59:56.115Z,23.52
2018-07-20T21:02:24.521Z,23.44
2018-07-20T21:04:52.940Z,23.37
2018-07-20T21:07:21.420Z,23.32
2018-07-20T21:09:49.914Z,23.36
2018-07-20T21:12:18.397Z,23.33
2018-07-20T21:14:47.400Z,23.27
2018-07-20T21:17:15.860Z,23.26
2018-07-20T21:19:44.297Z,23.31
2018-07-20T21:22:12.717Z,23.31
2018-07-20T21:24:41.126Z,23.29
2018-07-20T21:27:09.578Z,23.22
2018-07-20T21:29:38.128Z,23.15
2018-07-20T21:32:06.608Z,23.13
2018-07-20T21:34:35.336Z,23.12
2018-07-20T21:37:04.096Z,23.10
2018-07-20T21:39:32.540Z,23.08
2018-07-20T21:42:01.032Z,23.04
2018-07-20T21:44:29.465Z,23.09
2018-07-20T21:46:57.920Z,23.14
2018-07-20T21:49:26.355Z,23.10
2018-07-20T21:51:54.758Z,23.14
2018-07-20T21:54:23.220Z,23.18
2018-07-20T21:56:51.606Z,23.19
2018-07-20T21:59:20.199Z,23.17
2018-07-20T22:01:48.625Z,23.14
2018-07-20T22:04:17.064Z,22.94
2018-07-20T22:06:45.465Z,22.90
2018-07-20T22:09:13.934Z,22.92
2018-07-20T22:11:42.363Z,22.92
2018-07-20T22:14:10.782Z,22.80
2018-07-20T22:16:39.237Z,22.81
2018-07-20T22:19:07.648Z,22.81
2018-07-20T22:21:36.039Z,22.76
2018-07-20T22:24:05.357Z,22.80
2018-07-20T22:26:33.751Z,22.87
2018-07-20T22:29:02.149Z,22.91
2018-07-20T22:31:30.554Z,22.94
2018-07-20T22:33:58.987Z,22.89
2018-07-20T22:36:27.397Z,22.92
2018-07-20T22:38:55.820Z,22.91
2018-07-20T22:41:24.324Z,22.92
2018-07-20T22:43:52.721Z,22.88
2018-07-20T22:46:21.122Z,22.88
2018-07-20T22:48:49.696Z,22.89
2018-07-20T22:51:18.108Z,22.90
2018-07-20T22:53:46.598Z,22.90
2018-07-20T22:56:15.003Z,22.89
2018-07-20T22:58:43.462Z,22.87
2018-07-20T23:01:11.878Z,22.85
2018-07-20T23:03:40.410Z,22.82
2018-07-20T23:06:08.879Z,22.82
2018-07-20T23:08:37.309Z,22.78
2018-07-20T23:11:05.719Z,22.74
2018-07-20T23:13:34.144Z,22.59
2018-07-20T23:16:02.544Z,22.45
2018-07-20T23:18:30.981Z,22.41
2018-07-20T23:20:59.402Z,22.45
2018-07-20T23:23:27.869Z,22.40
2018-07-20T23:25:56.242Z,22.36
2018-07-20T23:28:24.638Z,22.23
2018-07-20T23:30:53.041Z,22.20
2018-07-20T23:33:21.439Z,22.23
2018-07-20T23:35:49.815Z,22.21
2018-07-20T23:38:18.694Z,22.15
2018-07-20T23:40:47.117Z,22.16
2018-07-20T23:43:15.497Z,22.09
2018-07-20T23:45:43.928Z,22.06
2018-07-20T23:48:12.337Z,22.05
2018-07-20T23:50:40.787Z,22.05
2018-07-20T23:53:09.168Z,22.11
2018-07-20T23:55:37.632Z,22.15
2018-07-20T23:58:06.063Z,22.18
